createdAt,value
2023-09-06T00:03:06.254Z,5.90
2023-09-06T00:06:44.896Z,5.40
2023-09-06T00:10:17.695Z,4.50
2023-09-06T00:14:08.251Z,4.40
2023-09-06T00:17:41.042Z,5.20
2023-09-06T00:21:08.221Z,5.50
2023-09-06T00:24:52.941Z,6.40
2023-09-06T00:28:23.264Z,7.60
2023-09-06T00:32:12.492Z,5.90
2023-09-06T00:35:53.035Z,6.20
2023-09-06T00:39:33.356Z,4.90
2023-09-06T00:43:01.369Z,6.20
2023-09-06T00:46:26.242Z,7.10
2023-09-06T00:49:55.013Z,6.30
2023-09-06T00:53:19.773Z,5.50
2023-09-06T00:56:48.127Z,5.10
2023-09-06T01:00:19.312Z,6.00
2023-09-06T01:04:04.644Z,5.40
2023-09-06T01:07:36.120Z,5.10
2023-09-06T01:11:35.901Z,4.20
2023-09-06T01:15:16.130Z,4.50
2023-09-06T01:18:44.159Z,5.00
2023-09-06T01:22:53.576Z,4.40
2023-09-06T01:26:20.390Z,3.90
2023-09-06T01:29:47.784Z,5.70
2023-09-06T01:33:16.235Z,5.50
2023-09-06T01:36:52.782Z,4.60
2023-09-06T01:40:21.358Z,4.00
2023-09-06T01:43:55.951Z,4.60
2023-09-06T01:47:45.515Z,4.20
2023-09-06T01:51:20.629Z,5.10
2023-09-06T01:58:34.248Z,5.00
2023-09-06T02:02:25.101Z,4.20
2023-09-06T02:05:59.375Z,4.80
2023-09-06T02:09:32.209Z,5.30
2023-09-06T02:13:02.015Z,4.80
2023-09-06T02:16:32.102Z,6.50
2023-09-06T02:20:02.854Z,5.00
2023-09-06T02:23:52.191Z,6.20
2023-09-06T02:27:19.400Z,4.40
2023-09-06T02:30:46.001Z,5.90
2023-09-06T02:34:17.227Z,5.20
2023-09-06T02:38:05.078Z,5.70
2023-09-06T02:41:33.513Z,5.00
2023-09-06T02:45:23.716Z,5.20
2023-09-06T02:48:52.254Z,5.40
2023-09-06T02:52:39.667Z,6.10
2023-09-06T02:56:07.451Z,6.40
2023-09-06T02:59:33.799Z,4.80
2023-09-06T03:03:10.624Z,6.50
2023-09-06T03:06:51.539Z,5.30
2023-09-06T03:10:52.763Z,4.40
2023-09-06T03:15:03.347Z,5.40
2023-09-06T03:19:07.676Z,4.00
2023-09-06T03:22:39.372Z,4.30
2023-09-06T03:26:15.238Z,3.80
2023-09-06T03:30:02.259Z,4.90
2023-09-06T03:33:32.700Z,4.40
2023-09-06T03:37:24.460Z,4.50
2023-09-06T03:40:51.241Z,4.40
2023-09-06T03:44:22.752Z,4.80
2023-09-06T03:48:02.266Z,5.90
2023-09-06T03:52:01.022Z,5.50
2023-09-06T03:55:25.746Z,5.90
2023-09-06T03:59:09.696Z,6.80
2023-09-06T04:03:05.736Z,6.00
2023-09-06T04:06:58.481Z,4.90
2023-09-06T04:11:14.992Z,6.20
2023-09-06T04:15:05.097Z,5.80
2023-09-06T04:18:57.474Z,4.60
2023-09-06T04:22:21.792Z,6.30
2023-09-06T04:25:53.484Z,5.50
2023-09-06T04:29:51.111Z,5.00
2023-09-06T04:33:20.834Z,5.40
2023-09-06T04:36:49.015Z,6.30
2023-09-06T04:40:21.230Z,6.40
2023-09-06T04:43:49.841Z,5.90
2023-09-06T04:47:32.883Z,5.50
2023-09-06T04:51:03.487Z,6.40
2023-09-06T04:54:43.984Z,4.90
2023-09-06T04:58:11.332Z,4.30
2023-09-06T05:01:42.424Z,4.70
2023-09-06T05:05:05.913Z,4.70
2023-09-06T05:08:36.104Z,5.30
2023-09-06T05:12:16.356Z,5.50
2023-09-06T05:15:44.784Z,4.20
2023-09-06T05:19:09.950Z,5.10
2023-09-06T05:22:33.350Z,5.10
2023-09-06T05:25:58.168Z,4.80
2023-09-06T05:29:39.014Z,4.50
2023-09-06T05:33:03.422Z,5.80
2023-09-06T05:36:27.867Z,5.00
2023-09-06T05:39:52.553Z,4.50
2023-09-06T05:43:24.396Z,4.40
2023-09-06T05:46:48.432Z,4.70
2023-09-06T05:50:12.169Z,5.70
2023-09-06T05:53:35.563Z,8.80
2023-09-06T05:57:01.225Z,5.30
2023-09-06T06:00:24.728Z,4.70
2023-09-06T06:04:11.175Z,6.40
2023-09-06T06:07:45.618Z,5.60
2023-09-06T06:11:13.100Z,4.50
2023-09-06T06:14:46.353Z,5.40
2023-09-06T06:18:27.934Z,5.80
2023-09-06T06:21:54.583Z,5.60
2023-09-06T06:25:17.338Z,6.60
2023-09-06T06:28:43.848Z,6.40
2023-09-06T06:31:56.976Z,6.80
2023-09-06T06:35:12.488Z,7.40
2023-09-06T06:38:43.542Z,7.00
2023-09-06T06:42:05.064Z,7.50
2023-09-06T06:45:39.254Z,6.60
2023-09-06T06:49:25.526Z,5.00
2023-09-06T06:52:53.367Z,7.00
2023-09-06T06:56:35.869Z,8.90
2023-09-06T06:59:57.841Z,9.70
2023-09-06T07:03:36.978Z,11.50
2023-09-06T07:06:59.102Z,8.80
2023-09-06T07:10:33.231Z,10.70
2023-09-06T07:13:58.886Z,9.70
2023-09-06T07:17:21.437Z,10.70
2023-09-06T07:20:45.436Z,11.90
2023-09-06T07:24:06.085Z,10.10
2023-09-06T07:27:51.510Z,9.90
2023-09-06T07:31:19.555Z,9.70
2023-09-06T07:34:44.977Z,9.30
2023-09-06T07:38:07.569Z,9.00
2023-09-06T07:41:46.939Z,8.80
2023-09-06T07:45:09.208Z,8.00
2023-09-06T07:48:28.284Z,7.40
2023-09-06T07:51:47.391Z,9.80
2023-09-06T07:55:08.990Z,10.10
2023-09-06T07:58:22.096Z,10.80
2023-09-06T08:01:50.335Z,9.20
2023-09-06T08:05:14.085Z,10.60
2023-09-06T08:08:40.013Z,8.10
2023-09-06T08:12:07.062Z,8.80
2023-09-06T08:15:31.084Z,11.10
2023-09-06T08:18:50.756Z,6.90
2023-09-06T08:22:14.526Z,8.30
2023-09-06T08:25:37.735Z,6.60
2023-09-06T08:29:07.119Z,5.40
2023-09-06T08:32:25.380Z,5.40
2023-09-06T08:35:44.835Z,5.70
2023-09-06T08:39:03.689Z,4.80
2023-09-06T08:42:13.689Z,4.80
2023-09-06T08:45:52.091Z,4.40
2023-09-06T08:49:09.084Z,5.30
2023-09-06T08:52:31.792Z,5.60
2023-09-06T08:56:00.458Z,5.30
2023-09-06T08:59:42.474Z,5.00
2023-09-06T09:03:22.652Z,5.80
2023-09-06T09:06:48.587Z,5.90
2023-09-06T09:10:13.521Z,5.30
2023-09-06T09:16:56.159Z,6.60
2023-09-06T09:20:30.766Z,6.50
2023-09-06T09:23:59.051Z,6.20
2023-09-06T09:27:41.157Z,7.70
2023-09-06T09:30:53.881Z,5.80
2023-09-06T09:34:07.906Z,5.40
2023-09-06T09:37:31.687Z,4.70
2023-09-06T09:41:12.843Z,5.30
2023-09-06T09:44:34.205Z,6.70
2023-09-06T09:47:54.930Z,4.30
2023-09-06T09:51:06.680Z,5.20
2023-09-06T09:54:30.764Z,5.30
2023-09-06T09:57:45.982Z,6.30
2023-09-06T10:01:01.947Z,4.70
2023-09-06T10:04:17.404Z,5.20
2023-09-06T10:07:48.784Z,4.30
2023-09-06T10:11:02.192Z,4.90
2023-09-06T10:14:27.109Z,5.00
2023-09-06T10:17:44.044Z,5.10
2023-09-06T10:24:54.354Z,6.90
2023-09-06T10:28:24.890Z,4.60
2023-09-06T10:31:42.845Z,5.00
2023-09-06T10:35:31.225Z,5.20
2023-09-06T10:39:20.453Z,6.00
2023-09-06T10:42:27.732Z,6.00
2023-09-06T10:46:01.683Z,6.10
2023-09-06T10:49:41.236Z,6.10
2023-09-06T10:53:11.414Z,5.20
2023-09-06T10:56:29.134Z,5.40
2023-09-06T10:59:42.013Z,4.90
2023-09-06T11:03:30.842Z,5.00
2023-09-06T11:07:11.507Z,5.50
2023-09-06T11:10:37.855Z,6.00
2023-09-06T11:14:10.661Z,4.80
2023-09-06T11:17:50.932Z,5.30
2023-09-06T11:21:17.561Z,5.30
2023-09-06T11:24:42.029Z,4.70
2023-09-06T11:27:55.274Z,4.60
2023-09-06T11:31:07.532Z,3.80
2023-09-06T11:34:19.658Z,5.00
2023-09-06T11:37:46.994Z,5.30
2023-09-06T11:40:56.677Z,4.60
2023-09-06T11:44:20.711Z,4.70
2023-09-06T11:47:32.324Z,5.30
2023-09-06T11:51:27.721Z,5.00
2023-09-06T11:54:58.269Z,5.30
2023-09-06T11:58:44.383Z,4.90
2023-09-06T12:02:12.969Z,4.70
2023-09-06T12:05:49.188Z,5.00
2023-09-06T12:09:15.021Z,5.60
2023-09-06T12:12:44.361Z,4.60
2023-09-06T12:16:08.816Z,4.80
2023-09-06T12:19:46.284Z,4.20
2023-09-06T12:23:04.005Z,5.90
2023-09-06T12:26:27.340Z,4.80
2023-09-06T12:29:40.884Z,5.40
2023-09-06T12:32:49.336Z,5.30
2023-09-06T12:36:18.798Z,4.90
2023-09-06T12:39:45.758Z,4.70
2023-09-06T12:43:17.866Z,4.70
2023-09-06T12:46:39.010Z,4.30
2023-09-06T12:49:50.811Z,4.50
2023-09-06T12:53:18.309Z,6.10
2023-09-06T12:56:25.515Z,5.10
2023-09-06T12:59:47.813Z,4.60
2023-09-06T13:03:12.854Z,5.00
2023-09-06T13:06:54.786Z,4.50
2023-09-06T13:10:28.295Z,4.70
2023-09-06T13:14:01.603Z,4.20
2023-09-06T13:17:15.898Z,5.30
2023-09-06T13:24:19.813Z,4.70
2023-09-06T13:27:28.159Z,6.20
2023-09-06T13:30:55.307Z,4.10
2023-09-06T13:34:40.519Z,4.20
2023-09-06T13:37:56.065Z,4.90
2023-09-06T13:41:18.856Z,5.30
2023-09-06T13:45:01.361Z,4.50
2023-09-06T13:48:20.494Z,5.00
2023-09-06T13:51:46.530Z,3.50
2023-09-06T13:55:08.691Z,5.00
2023-09-06T13:58:37.018Z,5.20
2023-09-06T14:01:59.375Z,5.00
2023-09-06T14:05:27.481Z,5.10
2023-09-06T14:08:37.156Z,5.00
2023-09-06T14:15:55.177Z,4.10
2023-09-06T14:19:04.605Z,4.70
2023-09-06T14:22:44.240Z,3.80
2023-09-06T14:26:05.298Z,4.40
2023-09-06T14:29:30.574Z,4.60
2023-09-06T14:32:54.404Z,4.60
2023-09-06T14:36:24.727Z,4.60
2023-09-06T14:39:41.160Z,5.60
2023-09-06T14:43:03.457Z,6.10
2023-09-06T14:46:29.619Z,5.90
2023-09-06T14:49:54.715Z,6.30
2023-09-06T14:53:30.139Z,7.00
2023-09-06T14:57:00.926Z,4.80
2023-09-06T15:00:34.875Z,6.20
2023-09-06T15:03:55.774Z,6.70
2023-09-06T15:07:41.892Z,5.70
2023-09-06T15:11:28.382Z,6.80
2023-09-06T15:14:51.697Z,5.00
2023-09-06T15:26:01.344Z,6.10
2023-09-06T15:29:26.667Z,5.60
2023-09-06T15:32:46.244Z,5.40
2023-09-06T15:36:13.514Z,5.50
2023-09-06T15:39:41.033Z,6.00
2023-09-06T15:43:14.243Z,5.50
2023-09-06T15:46:34.183Z,4.80
2023-09-06T15:49:55.954Z,6.80
2023-09-06T15:53:26.892Z,6.20
2023-09-06T15:56:38.731Z,6.40
2023-09-06T15:59:57.347Z,5.30
2023-09-06T16:03:10.022Z,5.60
2023-09-06T16:06:31.664Z,5.50
2023-09-06T16:09:55.550Z,6.00
2023-09-06T16:13:11.515Z,5.50
2023-09-06T16:16:42.916Z,5.50
2023-09-06T16:20:07.008Z,4.50
2023-09-06T16:23:32.494Z,5.20
2023-09-06T16:27:01.340Z,4.80
2023-09-06T16:30:28.385Z,4.90
2023-09-06T16:33:55.908Z,5.10
2023-09-06T16:37:14.079Z,5.70
2023-09-06T16:40:44.298Z,4.80
2023-09-06T16:44:01.172Z,4.50
2023-09-06T16:47:24.964Z,3.90
2023-09-06T16:50:47.575Z,5.80
2023-09-06T16:54:12.580Z,5.40
2023-09-06T16:57:46.481Z,5.40
2023-09-06T17:01:28.054Z,5.10
2023-09-06T17:05:10.437Z,5.90
2023-09-06T17:08:42.131Z,5.30
2023-09-06T17:12:04.886Z,5.40
2023-09-06T17:15:41.736Z,6.10
2023-09-06T17:19:29.198Z,8.30
2023-09-06T17:22:59.097Z,8.00
2023-09-06T17:26:25.914Z,8.70
2023-09-06T17:29:54.021Z,8.20
2023-09-06T17:33:42.439Z,10.20
2023-09-06T17:37:13.396Z,11.30
2023-09-06T17:40:48.489Z,9.30
2023-09-06T17:44:29.760Z,8.30
2023-09-06T17:47:58.084Z,9.20
2023-09-06T17:51:24.636Z,10.90
2023-09-06T17:54:50.564Z,11.10
2023-09-06T17:58:36.183Z,10.10
2023-09-06T18:02:00.953Z,11.10
2023-09-06T18:05:34.873Z,9.20
2023-09-06T18:09:00.416Z,10.70
2023-09-06T18:12:27.399Z,10.20
2023-09-06T18:16:06.547Z,10.40
2023-09-06T18:19:32.486Z,9.90
2023-09-06T18:23:19.285Z,10.40
2023-09-06T18:27:14.761Z,9.60
2023-09-06T18:30:47.470Z,10.40
2023-09-06T18:34:14.368Z,11.10
2023-09-06T18:37:46.060Z,8.30
2023-09-06T18:41:30.243Z,8.50
2023-09-06T18:44:58.484Z,7.60
2023-09-06T18:56:16.697Z,9.60
2023-09-06T18:59:49.023Z,7.70
2023-09-06T19:03:22.806Z,9.10
2023-09-06T19:06:54.526Z,7.80
2023-09-06T19:10:31.802Z,10.60
2023-09-06T19:14:05.060Z,10.00
2023-09-06T19:17:33.226Z,10.50
2023-09-06T19:21:20.449Z,9.60
2023-09-06T19:24:51.472Z,10.50
2023-09-06T19:28:19.929Z,12.00
2023-09-06T19:31:55.942Z,11.30
2023-09-06T19:35:42.917Z,9.60
2023-09-06T19:39:14.539Z,10.40
2023-09-06T19:42:43.364Z,9.40
2023-09-06T19:46:28.258Z,9.70
2023-09-06T19:50:03.144Z,9.40
2023-09-06T19:53:43.666Z,8.90
2023-09-06T19:57:11.532Z,8.90
2023-09-06T20:00:45.458Z,9.10
2023-09-06T20:04:33.811Z,10.50
2023-09-06T20:08:06.833Z,10.20
2023-09-06T20:11:35.324Z,9.50
2023-09-06T20:15:07.001Z,10.00
2023-09-06T20:18:40.862Z,10.00
2023-09-06T20:22:11.264Z,9.60
2023-09-06T20:26:00.125Z,9.40
2023-09-06T20:29:46.578Z,11.40
2023-09-06T20:33:45.121Z,11.20
2023-09-06T20:37:29.281Z,10.50
2023-09-06T20:41:20.569Z,8.90
2023-09-06T20:44:59.173Z,10.60
2023-09-06T20:48:31.682Z,10.90
2023-09-06T20:51:56.777Z,10.90
2023-09-06T20:55:23.048Z,9.90
2023-09-06T20:59:01.259Z,6.70
2023-09-06T21:02:34.750Z,9.00
2023-09-06T21:06:10.012Z,10.60
2023-09-06T21:09:58.826Z,9.40
2023-09-06T21:13:32.586Z,8.80
2023-09-06T21:17:19.585Z,9.10
2023-09-06T21:21:07.965Z,8.30
2023-09-06T21:25:30.580Z,7.90
2023-09-06T21:29:28.618Z,8.50
2023-09-06T21:33:13.962Z,10.50
2023-09-06T21:36:44.055Z,9.80
2023-09-06T21:40:12.573Z,8.20
2023-09-06T21:43:44.684Z,9.70
2023-09-06T21:47:25.260Z,8.90
2023-09-06T21:50:54.362Z,10.00
2023-09-06T21:54:29.190Z,8.40
2023-09-06T21:58:09.065Z,9.00
2023-09-06T22:01:56.510Z,8.10
2023-09-06T22:05:42.004Z,7.50
2023-09-06T22:09:20.854Z,8.40
2023-09-06T22:12:56.024Z,7.90
2023-09-06T22:16:36.971Z,8.20
2023-09-06T22:20:40.376Z,8.00
2023-09-06T22:24:25.594Z,10.10
2023-09-06T22:28:19.884Z,9.20
2023-09-06T22:31:53.425Z,9.50
2023-09-06T22:35:23.395Z,7.30
2023-09-06T22:39:07.028Z,8.90
2023-09-06T22:42:35.630Z,7.70
2023-09-06T22:46:18.241Z,8.10
2023-09-06T22:49:47.325Z,7.70
2023-09-06T22:53:23.407Z,6.20
2023-09-06T23:00:38.982Z,8.70
2023-09-06T23:04:14.301Z,7.70
2023-09-06T23:07:43.521Z,8.60
2023-09-06T23:11:36.183Z,7.40
2023-09-06T23:15:05.340Z,7.30
2023-09-06T23:18:54.871Z,10.10
2023-09-06T23:22:25.082Z,9.80
2023-09-06T23:26:16.101Z,8.70
2023-09-06T23:33:27.900Z,9.40
2023-09-06T23:36:57.047Z,9.80
2023-09-06T23:40:33.778Z,7.90
2023-09-06T23:44:06.468Z,8.00
2023-09-06T23:48:07.590Z,6.90
2023-09-06T23:58:41.719Z,8.70
